createdAt,value
2023-03-06T00:01:29.404Z,947.09
2023-03-06T00:06:30.987Z,947.03
2023-03-06T00:11:33.011Z,946.99
2023-03-06T00:16:34.739Z,946.93
2023-03-06T00:21:36.597Z,946.86
2023-03-06T00:26:38.710Z,946.82
2023-03-06T00:31:39.813Z,946.73
2023-03-06T00:36:41.740Z,946.69
2023-03-06T00:41:44.901Z,946.68
2023-03-06T00:46:44.769Z,946.66
2023-03-06T00:51:46.108Z,946.56
2023-03-06T00:56:48.078Z,946.43
2023-03-06T01:01:50.321Z,946.35
2023-03-06T01:06:51.840Z,946.21
2023-03-06T01:11:53.256Z,946.19
2023-03-06T01:16:55.354Z,946.13
2023-03-06T01:21:57.217Z,946.03
2023-03-06T01:26:58.565Z,945.96
2023-03-06T01:32:00.162Z,945.92
2023-03-06T01:37:01.896Z,945.92
2023-03-06T01:42:03.980Z,945.79
2023-03-06T01:47:05.524Z,945.74
2023-03-06T01:52:21.243Z,945.63
2023-03-06T01:57:23.404Z,945.5
2023-03-06T02:02:17.194Z,945.34
2023-03-06T02:07:18.510Z,945.25
2023-03-06T02:12:19.756Z,945.25
2023-03-06T02:17:21.511Z,945.22
2023-03-06T02:22:23.250Z,945.15
2023-03-06T02:27:24.907Z,945.18
2023-03-06T02:32:27.529Z,945.07
2023-03-06T02:37:28.035Z,945.01
2023-03-06T02:42:29.243Z,944.96
2023-03-06T02:47:30.690Z,944.81
2023-03-06T02:52:31.946Z,944.76
2023-03-06T02:57:33.852Z,944.68
2023-03-06T03:02:35.535Z,944.6
2023-03-06T03:07:37.338Z,944.64
2023-03-06T03:12:40.799Z,944.58
2023-03-06T03:17:40.981Z,944.51
2023-03-06T03:22:42.311Z,944.53
2023-03-06T03:27:43.872Z,944.45
2023-03-06T03:32:45.420Z,944.49
2023-03-06T03:37:47.126Z,944.41
2023-03-06T03:42:48.810Z,944.35
2023-03-06T03:47:51.070Z,944.26
2023-03-06T03:52:52.561Z,944.25
2023-03-06T03:57:54.238Z,944.22
2023-03-06T04:02:56.066Z,944.2
2023-03-06T04:07:57.390Z,944.19
2023-03-06T04:12:59.038Z,944.16
2023-03-06T04:18:01.040Z,944.1
2023-03-06T04:23:02.426Z,944.08
2023-03-06T04:28:03.907Z,944.1
2023-03-06T04:33:05.701Z,944.05
2023-03-06T04:38:07.595Z,943.95
2023-03-06T04:43:09.053Z,943.86
2023-03-06T04:48:10.391Z,943.81
2023-03-06T04:53:12.539Z,943.75
2023-03-06T04:58:14.181Z,943.76
2023-03-06T05:03:15.539Z,943.73
2023-03-06T05:08:16.809Z,943.74
2023-03-06T05:13:18.106Z,943.77
2023-03-06T05:18:20.152Z,943.75
2023-03-06T05:23:22.152Z,943.75
2023-03-06T05:28:23.753Z,943.77
2023-03-06T05:33:24.978Z,943.69
2023-03-06T05:38:27.256Z,943.67
2023-03-06T05:43:28.582Z,943.72
2023-03-06T05:48:33.158Z,943.63
2023-03-06T05:53:31.564Z,943.67
2023-03-06T05:58:32.951Z,943.72
2023-03-06T06:03:34.398Z,943.73
2023-03-06T06:08:36.182Z,943.74
2023-03-06T06:13:40.168Z,943.73
2023-03-06T06:18:41.354Z,943.72
2023-03-06T06:23:41.642Z,943.67
2023-03-06T06:28:43.677Z,943.78
2023-03-06T06:33:45.815Z,943.79
2023-03-06T06:38:47.978Z,943.79
2023-03-06T06:43:59.278Z,943.76
2023-03-06T06:48:50.738Z,943.79
2023-03-06T06:53:51.968Z,943.77
2023-03-06T06:58:54.787Z,943.8
2023-03-06T07:03:55.253Z,943.85
2023-03-06T07:08:57.568Z,943.82
2023-03-06T07:13:58.950Z,943.8
2023-03-06T07:19:01.076Z,943.85
2023-03-06T07:24:02.232Z,943.86
2023-03-06T07:29:04.081Z,943.86
2023-03-06T07:34:05.817Z,943.89
2023-03-06T07:39:07.741Z,943.95
2023-03-06T07:44:09.574Z,943.98
2023-03-06T07:49:11.212Z,943.99
2023-03-06T07:54:12.453Z,943.98
2023-03-06T07:59:14.375Z,944.03
2023-03-06T08:04:16.216Z,944.02
2023-03-06T08:09:18.351Z,944.02
2023-03-06T08:14:19.776Z,943.98
2023-03-06T08:19:21.572Z,944
2023-03-06T08:24:22.957Z,944.01
2023-03-06T08:29:24.172Z,944.08
2023-03-06T08:34:26.342Z,944.11
2023-03-06T08:39:28.232Z,944.02
2023-03-06T08:44:29.563Z,944.03
2023-03-06T08:49:31.528Z,944.1
2023-03-06T08:54:42.803Z,944.1
2023-03-06T08:59:34.523Z,944.16
2023-03-06T09:04:36.135Z,944.18
2023-03-06T09:09:38.152Z,944.13
2023-03-06T09:14:39.511Z,944.11
2023-03-06T09:19:41.456Z,944.11
2023-03-06T09:24:42.661Z,944.15
2023-03-06T09:29:44.456Z,944.19
2023-03-06T10:14:59.956Z,944.15
2023-03-06T10:25:03.261Z,944.15
2023-03-06T10:30:04.991Z,944.03
2023-03-06T10:35:06.065Z,944.07
2023-03-06T10:40:08.496Z,944
2023-03-06T10:50:10.841Z,944
2023-03-06T10:55:12.724Z,943.93
2023-03-06T11:00:13.280Z,943.9
2023-03-06T11:05:15.247Z,943.87
2023-03-06T11:10:16.916Z,943.88
2023-03-06T11:15:18.475Z,943.85
2023-03-06T11:20:20.213Z,943.81
2023-03-06T11:25:21.292Z,943.83
2023-03-06T11:30:23.079Z,943.75
2023-03-06T11:35:24.576Z,943.72
2023-03-06T11:40:26.600Z,943.71
2023-03-06T11:45:38.517Z,943.62
2023-03-06T11:50:29.940Z,943.62
2023-03-06T11:55:31.646Z,943.52
2023-03-06T12:00:33.416Z,943.44
2023-03-06T12:05:34.971Z,943.44
2023-03-06T12:10:36.422Z,943.37
2023-03-06T12:15:38.454Z,943.41
2023-03-06T12:20:39.894Z,943.45
2023-03-06T12:25:41.314Z,943.45
2023-03-06T12:40:46.146Z,943.52
2023-03-06T12:45:48.173Z,943.5
2023-03-06T12:50:49.813Z,943.51
2023-03-06T12:55:51.266Z,943.52
2023-03-06T13:00:58.677Z,943.57
2023-03-06T13:05:55.069Z,943.51
2023-03-06T13:10:56.600Z,943.46
2023-03-06T13:15:57.888Z,943.53
2023-03-06T13:20:59.284Z,943.43
2023-03-06T13:26:01.064Z,943.41
2023-03-06T13:31:03.119Z,943.38
2023-03-06T13:36:05.073Z,943.4
2023-03-06T13:41:06.514Z,943.36
2023-03-06T13:46:08.209Z,943.42
2023-03-06T13:51:09.775Z,943.38
2023-03-06T13:56:11.693Z,943.35
2023-03-06T14:01:13.187Z,943.31
2023-03-06T14:06:14.840Z,943.32
2023-03-06T14:11:24.847Z,943.29
2023-03-06T14:16:17.928Z,943.29
2023-03-06T14:21:19.895Z,943.33
2023-03-06T14:26:21.602Z,943.32
2023-03-06T14:31:23.553Z,943.32
2023-03-06T14:36:25.624Z,943.32
2023-03-06T14:41:27.625Z,943.28
2023-03-06T14:46:29.166Z,943.24
2023-03-06T14:51:30.373Z,943.3
2023-03-06T14:56:31.686Z,943.2
2023-03-06T15:01:33.479Z,943.26
2023-03-06T15:06:35.640Z,943.21
2023-03-06T15:11:37.618Z,943.19
2023-03-06T15:16:38.911Z,943.21
2023-03-06T15:21:40.450Z,943.23
2023-03-06T15:26:42.177Z,943.24
2023-03-06T15:31:43.632Z,943.29
2023-03-06T15:36:45.582Z,943.31
2023-03-06T15:41:46.891Z,943.23
2023-03-06T15:46:49.921Z,943.2
2023-03-06T15:51:49.525Z,943.14
2023-03-06T15:56:51.201Z,943.22
2023-03-06T16:01:52.565Z,943.23
2023-03-06T16:06:54.025Z,943.25
2023-03-06T16:11:55.672Z,943.19
2023-03-06T16:16:57.649Z,943.22
2023-03-06T16:21:59.521Z,943.24
2023-03-06T16:27:01.656Z,943.25
2023-03-06T16:32:03.770Z,943.3
2023-03-06T16:37:04.953Z,943.35
2023-03-06T16:42:06.555Z,943.38
2023-03-06T16:47:08.722Z,943.42
2023-03-06T16:52:10.571Z,943.33
2023-03-06T16:57:12.564Z,943.39
2023-03-06T17:02:14.730Z,943.39
2023-03-06T17:07:16.069Z,943.43
2023-03-06T17:12:17.409Z,943.44
2023-03-06T17:17:28.899Z,943.45
2023-03-06T17:22:20.540Z,943.52
2023-03-06T17:27:22.391Z,943.57
2023-03-06T17:32:24.318Z,943.71
2023-03-06T17:37:26.434Z,943.7
2023-03-06T17:42:27.546Z,943.67
2023-03-06T17:47:29.313Z,943.76
2023-03-06T17:52:30.623Z,943.66
2023-03-06T17:57:31.941Z,943.69
2023-03-06T18:02:33.495Z,943.72
2023-03-06T18:07:35.693Z,943.75
2023-03-06T18:12:37.054Z,943.81
2023-03-06T18:17:38.575Z,943.8
2023-03-06T18:22:40.554Z,943.84
2023-03-06T18:27:42.084Z,943.93
2023-03-06T18:32:43.547Z,943.96
2023-03-06T18:37:51.980Z,943.99
2023-03-06T18:42:53.593Z,944
2023-03-06T18:47:55.598Z,943.97
2023-03-06T18:52:57.736Z,944
2023-03-06T18:57:59.850Z,943.99
2023-03-06T19:03:03.861Z,944.06
2023-03-06T19:08:03.062Z,944.01
2023-03-06T19:13:05.086Z,944.07
2023-03-06T19:18:07.166Z,944.05
2023-03-06T19:23:08.619Z,944.06
2023-03-06T19:28:10.772Z,944.04
2023-03-06T19:33:12.471Z,944.06
2023-03-06T19:38:14.633Z,944.07
2023-03-06T19:43:16.560Z,944.05
2023-03-06T19:48:17.942Z,944.04
2023-03-06T19:53:19.309Z,944.05
2023-03-06T19:58:20.583Z,944.08
2023-03-06T20:03:22.098Z,944.06
2023-03-06T20:08:24.199Z,944.09
2023-03-06T20:13:26.381Z,944.1
2023-03-06T20:18:27.852Z,944.07
2023-03-06T20:23:29.704Z,944.07
2023-03-06T20:28:31.185Z,944.07
2023-03-06T20:33:32.586Z,944.02
2023-03-06T20:38:34.461Z,944.14
2023-03-06T20:43:36.586Z,944.14
2023-03-06T20:48:38.170Z,944.19
2023-03-06T20:53:40.213Z,944.16
2023-03-06T20:58:41.720Z,944.06
2023-03-06T21:03:43.096Z,944.03
2023-03-06T21:08:45.317Z,944.01
2023-03-06T21:13:46.654Z,943.96
2023-03-06T21:18:48.641Z,944.03
2023-03-06T21:23:50.386Z,944.05
2023-03-06T21:28:52.310Z,944.02
2023-03-06T21:33:53.522Z,943.95
2023-03-06T21:38:54.733Z,943.92
2023-03-06T21:43:58.485Z,943.78
2023-03-06T21:48:59.115Z,943.83
2023-03-06T21:54:00.926Z,943.85
2023-03-06T21:59:02.763Z,943.87
2023-03-06T22:04:04.197Z,943.83
2023-03-06T22:09:06.340Z,943.8
2023-03-06T22:14:08.344Z,943.8
2023-03-06T22:19:09.840Z,943.79
2023-03-06T22:24:12.546Z,943.74
2023-03-06T22:29:22.937Z,943.74
2023-03-06T22:34:15.620Z,943.59
2023-03-06T22:39:17.346Z,943.51
2023-03-06T22:44:18.866Z,943.48
2023-03-06T22:49:20.168Z,943.53
2023-03-06T22:54:21.887Z,943.52
2023-03-06T22:59:24.472Z,943.4
2023-03-06T23:14:29.219Z,943.3
2023-03-06T23:19:30.836Z,943.25
2023-03-06T23:24:33.869Z,943.26
2023-03-06T23:29:34.124Z,943.25
2023-03-06T23:34:35.633Z,943.24
2023-03-06T23:39:36.886Z,943.18
2023-03-06T23:44:38.422Z,943.13
2023-03-06T23:49:40.046Z,943.22
2023-03-06T23:54:42.019Z,943.15
2023-03-06T23:59:43.569Z,943.27
